createdAt,value
2018-11-27T00:00:25.656Z,103.97
2018-11-27T00:02:58.612Z,106.00
2018-11-27T00:05:27.888Z,106.17
2018-11-27T00:08:02.263Z,106.37
2018-11-27T00:10:33.345Z,106.43
2018-11-27T00:16:02.200Z,104.73
2018-11-27T00:18:30.982Z,108.60
2018-11-27T00:20:59.766Z,107.23
2018-11-27T00:23:28.582Z,105.60
2018-11-27T00:25:57.371Z,106.03
2018-11-27T00:28:26.167Z,105.37
2018-11-27T00:30:54.969Z,106.30
2018-11-27T00:33:23.751Z,103.63
2018-11-27T00:35:52.555Z,103.97
2018-11-27T00:38:21.333Z,105.67
2018-11-27T00:40:50.186Z,106.77
2018-11-27T00:43:19.006Z,109.20
2018-11-27T00:45:47.915Z,104.80
2018-11-27T00:48:16.771Z,106.77
2018-11-27T00:50:45.541Z,104.03
2018-11-27T00:53:14.339Z,105.50
2018-11-27T00:55:43.155Z,104.80
2018-11-27T00:58:11.949Z,106.33
2018-11-27T01:00:40.733Z,106.77
2018-11-27T01:03:09.531Z,105.20
2018-11-27T01:05:38.486Z,104.37
2018-11-27T01:08:07.295Z,105.13
2018-11-27T01:10:36.084Z,106.63
2018-11-27T01:13:05.525Z,106.40
2018-11-27T01:15:34.851Z,106.90
2018-11-27T01:18:03.674Z,107.70
2018-11-27T01:20:32.516Z,105.17
2018-11-27T01:23:01.301Z,105.20
2018-11-27T01:25:30.066Z,104.83
2018-11-27T01:27:58.849Z,105.60
2018-11-27T01:30:27.624Z,105.43
2018-11-27T01:32:56.400Z,106.43
2018-11-27T01:35:25.196Z,104.77
2018-11-27T01:37:54.710Z,106.83
2018-11-27T01:40:25.811Z,107.67
2018-11-27T01:42:55.435Z,103.27
2018-11-27T01:45:24.729Z,106.87
2018-11-27T01:47:53.805Z,104.63
2018-11-27T01:50:22.758Z,104.57
2018-11-27T01:52:51.524Z,107.60
2018-11-27T01:55:21.114Z,104.57
2018-11-27T01:57:49.885Z,104.33
2018-11-27T02:00:28.628Z,103.90
2018-11-27T02:02:58.301Z,106.67
2018-11-27T02:05:27.626Z,105.83
2018-11-27T02:07:56.437Z,104.93
2018-11-27T02:10:25.251Z,104.80
2018-11-27T02:12:54.926Z,103.20
2018-11-27T02:15:24.754Z,105.80
2018-11-27T02:17:53.516Z,104.43
2018-11-27T02:20:22.304Z,105.27
2018-11-27T02:22:51.082Z,107.20
2018-11-27T02:25:24.885Z,106.60
2018-11-27T02:27:53.682Z,104.10
2018-11-27T02:30:23.339Z,103.10
2018-11-27T02:32:52.374Z,104.60
2018-11-27T02:35:22.452Z,105.27
2018-11-27T02:37:54.318Z,104.73
2018-11-27T02:40:23.107Z,106.00
2018-11-27T02:42:51.903Z,103.30
2018-11-27T02:45:21.531Z,104.83
2018-11-27T02:47:51.027Z,106.30
2018-11-27T02:50:20.904Z,104.27
2018-11-27T02:52:49.744Z,104.57
2018-11-27T02:55:19.603Z,104.47
2018-11-27T02:57:48.374Z,102.83
2018-11-27T03:00:19.200Z,103.37
2018-11-27T03:02:47.962Z,104.53
2018-11-27T03:05:36.564Z,106.37
2018-11-27T03:08:05.478Z,105.33
2018-11-27T03:10:34.314Z,105.70
2018-11-27T03:13:03.160Z,105.90
2018-11-27T03:15:31.961Z,103.93
2018-11-27T03:18:00.745Z,103.53
2018-11-27T03:20:29.547Z,104.47
2018-11-27T03:22:58.308Z,104.40
2018-11-27T03:25:27.305Z,103.57
2018-11-27T03:27:56.104Z,104.80
2018-11-27T03:30:26.007Z,105.20
2018-11-27T03:32:54.849Z,102.83
2018-11-27T03:35:24.569Z,102.30
2018-11-27T03:37:53.545Z,107.77
2018-11-27T03:40:24.403Z,103.43
2018-11-27T03:42:53.249Z,117.50
2018-11-27T03:45:22.702Z,104.30
2018-11-27T03:47:51.553Z,106.00
2018-11-27T03:50:29.206Z,102.50
2018-11-27T03:52:58.003Z,102.80
2018-11-27T03:55:26.766Z,103.13
2018-11-27T03:57:55.551Z,107.83
2018-11-27T04:00:26.091Z,115.63
2018-11-27T04:02:58.334Z,103.33
2018-11-27T04:05:27.122Z,105.13
2018-11-27T04:07:55.913Z,103.50
2018-11-27T04:10:24.697Z,107.10
2018-11-27T04:12:53.506Z,105.67
2018-11-27T04:15:22.293Z,104.17
2018-11-27T04:17:51.135Z,106.53
2018-11-27T04:20:19.914Z,106.03
2018-11-27T04:22:48.703Z,104.53
2018-11-27T04:25:18.164Z,104.67
2018-11-27T04:27:47.493Z,109.03
2018-11-27T04:30:18.791Z,109.40
2018-11-27T04:32:47.599Z,105.07
2018-11-27T04:35:19.571Z,104.50
2018-11-27T04:37:48.902Z,104.57
2018-11-27T04:40:19.588Z,109.00
2018-11-27T04:42:48.403Z,107.47
2018-11-27T04:45:21.386Z,101.80
2018-11-27T04:47:50.179Z,104.27
2018-11-27T04:50:19.366Z,105.67
2018-11-27T04:52:48.212Z,106.53
2018-11-27T04:55:18.077Z,102.73
2018-11-27T04:57:47.665Z,102.63
2018-11-27T05:00:18.423Z,101.73
2018-11-27T05:02:47.242Z,104.67
2018-11-27T05:05:16.073Z,102.47
2018-11-27T05:07:44.837Z,103.57
2018-11-27T05:10:16.954Z,106.63
2018-11-27T05:12:45.746Z,105.73
2018-11-27T05:15:21.605Z,104.07
2018-11-27T05:17:51.578Z,102.23
2018-11-27T05:20:20.373Z,105.47
2018-11-27T05:22:49.157Z,101.83
2018-11-27T05:25:18.665Z,104.20
2018-11-27T05:27:48.508Z,101.73
2018-11-27T05:30:18.285Z,104.60
2018-11-27T05:32:47.095Z,102.47
2018-11-27T05:35:16.993Z,102.13
2018-11-27T05:37:46.812Z,102.00
2018-11-27T05:40:16.610Z,102.77
2018-11-27T05:42:45.817Z,104.43
2018-11-27T05:45:15.827Z,107.97
2018-11-27T05:47:44.757Z,104.30
2018-11-27T05:50:14.498Z,102.63
2018-11-27T05:52:43.350Z,104.17
2018-11-27T05:55:12.919Z,104.70
2018-11-27T05:57:42.073Z,103.23
2018-11-27T06:00:15.034Z,106.77
2018-11-27T06:02:43.918Z,105.47
2018-11-27T06:05:16.846Z,103.27
2018-11-27T06:07:45.656Z,103.30
2018-11-27T06:10:15.521Z,104.40
2018-11-27T06:12:44.305Z,102.10
2018-11-27T06:15:15.120Z,104.10
2018-11-27T06:17:44.110Z,105.90
2018-11-27T06:20:15.566Z,103.23
2018-11-27T06:22:44.382Z,110.90
2018-11-27T06:25:16.113Z,110.67
2018-11-27T06:27:45.427Z,117.67
2018-11-27T06:30:20.349Z,113.87
2018-11-27T06:32:49.157Z,115.77
2018-11-27T06:35:23.251Z,115.20
2018-11-27T06:37:52.073Z,108.60
2018-11-27T06:40:22.169Z,124.50
2018-11-27T06:42:51.046Z,121.87
2018-11-27T06:45:21.195Z,117.70
2018-11-27T06:47:51.157Z,125.13
2018-11-27T06:50:20.856Z,113.13
2018-11-27T06:52:49.689Z,116.27
2018-11-27T06:55:19.400Z,111.43
2018-11-27T06:57:48.351Z,115.00
2018-11-27T07:00:19.473Z,125.37
2018-11-27T07:02:48.507Z,110.40
2018-11-27T07:05:17.514Z,121.13
2018-11-27T07:07:47.635Z,114.80
2018-11-27T07:10:22.611Z,126.60
2018-11-27T07:12:52.957Z,119.20
2018-11-27T07:15:22.723Z,113.80
2018-11-27T07:17:51.507Z,107.83
2018-11-27T07:20:20.302Z,116.13
2018-11-27T07:22:49.078Z,109.57
2018-11-27T07:25:17.847Z,116.03
2018-11-27T07:27:50.298Z,113.07
2018-11-27T07:30:23.051Z,106.47
2018-11-27T07:32:52.002Z,119.67
2018-11-27T07:35:21.318Z,109.83
2018-11-27T07:37:50.362Z,107.33
2018-11-27T07:40:20.478Z,109.33
2018-11-27T07:42:50.657Z,113.73
2018-11-27T07:45:20.545Z,106.87
2018-11-27T07:47:49.576Z,111.67
2018-11-27T07:50:18.530Z,112.63
2018-11-27T07:52:47.341Z,108.40
2018-11-27T07:55:17.194Z,109.43
2018-11-27T07:57:45.998Z,110.50
2018-11-27T08:00:19.164Z,107.47
2018-11-27T08:02:49.966Z,107.90
2018-11-27T08:05:20.195Z,109.40
2018-11-27T08:07:50.429Z,105.90
2018-11-27T08:10:20.393Z,107.40
2018-11-27T08:12:49.195Z,106.97
2018-11-27T08:15:19.134Z,106.20
2018-11-27T08:17:48.034Z,106.27
2018-11-27T08:20:22.071Z,111.60
2018-11-27T08:22:50.911Z,109.97
2018-11-27T08:25:19.737Z,108.77
2018-11-27T08:27:48.521Z,112.27
2018-11-27T08:30:18.122Z,112.87
2018-11-27T08:32:46.951Z,108.30
2018-11-27T08:35:23.402Z,112.07
2018-11-27T08:37:53.083Z,104.30
2018-11-27T08:40:24.847Z,108.47
2018-11-27T08:42:53.660Z,109.73
2018-11-27T08:45:23.581Z,109.90
2018-11-27T08:47:53.364Z,107.70
2018-11-27T08:50:23.993Z,109.10
2018-11-27T08:52:54.714Z,107.97
2018-11-27T08:55:25.868Z,112.93
2018-11-27T08:57:55.088Z,110.77
2018-11-27T09:00:25.058Z,107.70
2018-11-27T09:02:54.002Z,106.97
2018-11-27T09:05:22.966Z,110.47
2018-11-27T09:07:51.942Z,107.50
2018-11-27T09:10:22.837Z,107.60
2018-11-27T09:12:51.757Z,110.70
2018-11-27T09:15:21.727Z,106.23
2018-11-27T09:17:56.156Z,106.43
2018-11-27T09:20:25.014Z,105.27
2018-11-27T09:22:53.814Z,111.33
2018-11-27T09:25:22.595Z,109.67
2018-11-27T09:27:51.422Z,107.97
2018-11-27T09:30:25.569Z,103.97
2018-11-27T09:32:55.409Z,107.40
2018-11-27T09:35:24.205Z,109.47
2018-11-27T09:37:53.115Z,105.53
2018-11-27T09:40:22.071Z,105.37
2018-11-27T09:42:50.810Z,106.60
2018-11-27T09:45:21.953Z,102.77
2018-11-27T09:47:52.840Z,105.20
2018-11-27T09:50:21.729Z,102.57
2018-11-27T09:52:50.612Z,103.80
2018-11-27T09:55:21.163Z,111.03
2018-11-27T09:57:50.548Z,105.30
2018-11-27T10:00:22.810Z,106.07
2018-11-27T10:02:52.879Z,104.10
2018-11-27T10:05:21.688Z,102.77
2018-11-27T10:07:50.662Z,103.87
2018-11-27T10:10:21.168Z,107.47
2018-11-27T10:12:50.356Z,106.43
2018-11-27T10:15:26.152Z,107.47
2018-11-27T10:18:00.060Z,103.97
2018-11-27T10:20:32.523Z,102.00
2018-11-27T10:23:01.318Z,106.37
2018-11-27T10:25:30.096Z,108.80
2018-11-27T10:27:58.965Z,103.90
2018-11-27T10:30:28.328Z,104.83
2018-11-27T10:32:58.186Z,105.47
2018-11-27T10:35:36.813Z,103.50
2018-11-27T10:38:05.635Z,105.30
2018-11-27T10:40:34.409Z,103.43
2018-11-27T10:43:03.269Z,107.00
2018-11-27T10:45:32.369Z,104.40
2018-11-27T10:48:01.188Z,103.17
2018-11-27T10:50:29.998Z,106.57
2018-11-27T10:52:58.805Z,104.23
2018-11-27T10:55:27.651Z,103.93
2018-11-27T10:57:56.585Z,106.37
2018-11-27T11:00:31.683Z,107.30
2018-11-27T11:04:04.059Z,102.33
2018-11-27T11:06:33.177Z,103.37
2018-11-27T11:09:02.363Z,104.80
2018-11-27T11:11:31.215Z,104.07
2018-11-27T11:13:59.998Z,102.57
2018-11-27T11:16:28.805Z,102.47
2018-11-27T11:18:57.590Z,103.37
2018-11-27T11:21:26.761Z,102.13
2018-11-27T11:23:55.521Z,103.77
2018-11-27T11:26:24.365Z,106.87
2018-11-27T11:28:53.365Z,103.17
2018-11-27T11:31:22.215Z,103.07
2018-11-27T11:33:51.007Z,104.53
2018-11-27T11:36:19.797Z,103.20
2018-11-27T11:38:48.616Z,102.87
2018-11-27T11:41:17.390Z,107.03
2018-11-27T11:43:46.175Z,107.03
2018-11-27T11:46:14.945Z,104.67
2018-11-27T11:48:43.836Z,103.33
2018-11-27T11:51:12.741Z,105.73
2018-11-27T11:53:41.530Z,100.83
2018-11-27T11:56:10.660Z,104.33
2018-11-27T11:58:39.463Z,101.43
2018-11-27T12:01:08.373Z,103.83
2018-11-27T12:03:37.170Z,104.60
2018-11-27T12:06:05.954Z,104.17
2018-11-27T12:08:34.744Z,101.97
2018-11-27T12:11:03.589Z,103.33
2018-11-27T12:13:32.428Z,104.80
2018-11-27T12:16:01.201Z,105.70
2018-11-27T12:18:30.038Z,102.50
2018-11-27T12:20:58.830Z,103.33
2018-11-27T12:23:27.614Z,105.77
2018-11-27T12:25:56.400Z,103.53
2018-11-27T12:28:25.194Z,103.83
2018-11-27T12:30:54.027Z,103.40
2018-11-27T12:33:22.817Z,105.30
2018-11-27T12:35:51.649Z,103.40
2018-11-27T12:38:20.502Z,106.77
2018-11-27T12:40:49.413Z,101.10
2018-11-27T12:43:18.186Z,104.00
2018-11-27T12:45:46.970Z,103.70
2018-11-27T12:48:15.816Z,104.17
2018-11-27T12:50:46.438Z,104.10
2018-11-27T12:53:16.994Z,105.50
2018-11-27T12:55:46.702Z,104.80
2018-11-27T12:58:15.500Z,104.97
2018-11-27T13:00:44.302Z,103.50
2018-11-27T13:03:13.099Z,102.60
2018-11-27T13:05:43.431Z,101.70
2018-11-27T13:08:18.475Z,104.57
2018-11-27T13:10:47.246Z,106.93
2018-11-27T13:13:16.042Z,105.20
2018-11-27T13:15:45.238Z,102.17
2018-11-27T13:18:14.034Z,102.87
2018-11-27T13:20:42.825Z,110.80
2018-11-27T13:23:11.622Z,103.83
2018-11-27T13:25:40.420Z,105.23
2018-11-27T13:28:10.387Z,103.37
2018-11-27T13:30:41.217Z,102.37
2018-11-27T13:33:13.375Z,102.90
2018-11-27T13:35:42.170Z,104.13
2018-11-27T13:38:10.986Z,102.00
2018-11-27T13:40:39.787Z,102.30
2018-11-27T13:43:09.418Z,102.07
2018-11-27T13:45:38.235Z,101.53
2018-11-27T13:48:07.361Z,102.93
2018-11-27T13:50:36.208Z,102.23
2018-11-27T13:53:05.033Z,103.90
2018-11-27T13:55:33.818Z,102.13
2018-11-27T13:58:02.612Z,104.87
2018-11-27T14:00:31.401Z,102.43
2018-11-27T14:03:00.183Z,101.97
2018-11-27T14:05:28.978Z,102.83
2018-11-27T14:07:57.762Z,103.60
2018-11-27T14:10:26.570Z,105.67
2018-11-27T14:12:55.438Z,103.63
2018-11-27T14:15:25.305Z,100.87
2018-11-27T14:17:55.164Z,107.07
2018-11-27T14:20:23.961Z,105.47
2018-11-27T14:22:52.752Z,105.87
2018-11-27T14:25:21.831Z,106.37
2018-11-27T14:27:51.440Z,107.23
2018-11-27T14:30:21.702Z,107.27
2018-11-27T14:32:50.978Z,109.23
2018-11-27T14:35:20.678Z,104.43
2018-11-27T14:37:50.726Z,108.67
2018-11-27T14:40:20.616Z,108.10
2018-11-27T14:42:49.401Z,106.20
2018-11-27T14:45:20.482Z,103.07
2018-11-27T14:47:50.354Z,106.63
2018-11-27T14:50:19.175Z,109.23
2018-11-27T14:52:48.204Z,107.67
2018-11-27T14:55:25.898Z,106.67
2018-11-27T14:57:54.864Z,107.50
2018-11-27T15:00:24.553Z,106.73
2018-11-27T15:02:53.643Z,104.90
2018-11-27T15:05:28.100Z,104.23
2018-11-27T15:07:58.966Z,107.57
2018-11-27T15:10:28.375Z,105.60
2018-11-27T15:12:57.306Z,106.17
2018-11-27T15:15:26.139Z,108.00
2018-11-27T15:17:54.925Z,109.40
2018-11-27T15:20:23.907Z,105.93
2018-11-27T15:22:52.702Z,102.37
2018-11-27T15:25:21.610Z,102.67
2018-11-27T15:27:50.776Z,103.63
2018-11-27T15:30:23.614Z,103.83
2018-11-27T15:32:53.877Z,106.23
2018-11-27T15:35:22.654Z,103.20
2018-11-27T15:37:51.550Z,101.50
2018-11-27T15:40:21.995Z,103.77
2018-11-27T15:42:50.986Z,104.70
2018-11-27T15:45:20.979Z,103.23
2018-11-27T15:47:50.127Z,106.40
2018-11-27T15:50:18.937Z,103.83
2018-11-27T15:52:47.887Z,107.47
2018-11-27T15:55:22.175Z,101.23
2018-11-27T15:58:03.966Z,104.07
2018-11-27T16:00:32.731Z,102.57
2018-11-27T16:03:05.947Z,106.33
2018-11-27T16:05:35.945Z,101.87
2018-11-27T16:08:05.050Z,103.70
2018-11-27T16:10:33.839Z,102.33
2018-11-27T16:13:02.635Z,106.43
2018-11-27T16:15:32.329Z,104.63
2018-11-27T16:18:01.131Z,107.50
2018-11-27T16:20:29.947Z,104.90
2018-11-27T16:22:58.742Z,103.43
2018-11-27T16:25:27.539Z,103.53
2018-11-27T16:27:56.398Z,102.57
2018-11-27T16:30:27.391Z,104.37
2018-11-27T16:32:56.188Z,109.30
2018-11-27T16:35:24.970Z,102.47
2018-11-27T16:37:55.833Z,106.67
2018-11-27T16:40:32.917Z,106.40
2018-11-27T16:43:01.793Z,105.37
2018-11-27T16:45:30.602Z,108.93
2018-11-27T16:47:59.409Z,102.90
2018-11-27T16:50:28.195Z,103.30
2018-11-27T16:52:56.998Z,107.87
2018-11-27T16:55:25.786Z,103.40
2018-11-27T16:57:54.572Z,103.50
2018-11-27T17:00:27.540Z,102.80
2018-11-27T17:02:58.449Z,103.57
2018-11-27T17:05:29.113Z,108.70
2018-11-27T17:07:59.133Z,101.03
2018-11-27T17:10:31.325Z,104.57
2018-11-27T17:13:00.131Z,105.67
2018-11-27T17:15:29.379Z,106.57
2018-11-27T17:17:58.169Z,102.67
2018-11-27T17:20:33.380Z,106.40
2018-11-27T17:23:04.530Z,103.50
2018-11-27T17:25:33.370Z,104.23
2018-11-27T17:28:07.025Z,101.13
2018-11-27T17:30:40.819Z,103.90
2018-11-27T17:33:12.992Z,102.80
2018-11-27T17:35:41.770Z,102.77
2018-11-27T17:38:10.571Z,102.00
2018-11-27T17:40:39.355Z,103.47
2018-11-27T17:43:08.122Z,103.00
2018-11-27T17:45:36.881Z,103.37
2018-11-27T17:48:06.238Z,103.07
2018-11-27T17:50:35.045Z,105.20
2018-11-27T17:53:03.913Z,103.23
2018-11-27T17:55:32.705Z,103.00
2018-11-27T17:58:01.479Z,108.13
2018-11-27T18:00:30.700Z,102.77
2018-11-27T18:03:01.938Z,104.57
2018-11-27T18:05:30.697Z,104.73
2018-11-27T18:08:00.668Z,104.83
2018-11-27T18:10:28.444Z,102.53
2018-11-27T18:13:03.065Z,102.53
2018-11-27T18:15:33.853Z,102.13
2018-11-27T18:18:03.146Z,101.17
2018-11-27T18:20:39.237Z,103.03
2018-11-27T18:23:08.117Z,105.00
2018-11-27T18:25:36.883Z,102.60
2018-11-27T18:28:05.801Z,103.63
2018-11-27T18:30:34.593Z,104.20
2018-11-27T18:33:03.389Z,102.60
2018-11-27T18:35:32.185Z,102.83
2018-11-27T18:38:01.018Z,102.87
2018-11-27T18:40:29.802Z,106.43
2018-11-27T18:42:58.617Z,102.83
2018-11-27T18:45:28.988Z,106.40
2018-11-27T18:47:57.825Z,109.40
2018-11-27T18:50:27.820Z,106.50
2018-11-27T18:52:57.691Z,107.70
2018-11-27T18:55:27.194Z,105.87
2018-11-27T18:57:55.978Z,104.97
2018-11-27T19:00:27.101Z,102.53
2018-11-27T19:02:56.041Z,105.10
2018-11-27T19:05:24.873Z,104.97
2018-11-27T19:07:53.706Z,102.50
2018-11-27T19:10:26.373Z,101.27
2018-11-27T19:12:55.293Z,102.37
2018-11-27T19:15:44.905Z,103.50
2018-11-27T19:18:22.346Z,103.73
2018-11-27T19:20:51.244Z,102.27
2018-11-27T19:23:21.449Z,105.70
2018-11-27T19:25:50.239Z,104.97
2018-11-27T19:28:19.100Z,101.60
2018-11-27T19:30:48.345Z,101.77
2018-11-27T19:33:17.134Z,102.73
2018-11-27T19:35:46.697Z,101.57
2018-11-27T19:38:16.845Z,102.80
2018-11-27T19:40:45.647Z,102.50
2018-11-27T19:43:14.431Z,102.13
2018-11-27T19:45:43.237Z,103.70
2018-11-27T19:48:12.810Z,108.00
2018-11-27T19:50:42.044Z,103.97
2018-11-27T19:53:12.547Z,105.23
2018-11-27T19:55:41.177Z,102.90
2018-11-27T19:58:10.459Z,103.77
2018-11-27T20:00:39.238Z,104.47
2018-11-27T20:03:09.981Z,103.90
2018-11-27T20:05:38.895Z,102.70
2018-11-27T20:08:11.105Z,101.97
2018-11-27T20:10:39.938Z,101.80
2018-11-27T20:13:08.720Z,103.20
2018-11-27T20:15:37.513Z,103.53
2018-11-27T20:18:06.359Z,103.30
2018-11-27T20:20:35.253Z,103.37
2018-11-27T20:23:04.105Z,101.83
2018-11-27T20:25:32.984Z,102.93
2018-11-27T20:28:01.759Z,101.20
2018-11-27T20:30:30.551Z,101.90
2018-11-27T20:33:01.048Z,103.30
2018-11-27T20:35:30.434Z,101.87
2018-11-27T20:38:00.594Z,105.33
2018-11-27T20:40:29.378Z,102.23
2018-11-27T20:42:58.165Z,102.57
2018-11-27T20:45:27.381Z,103.50
2018-11-27T20:48:07.213Z,101.43
2018-11-27T20:50:36.211Z,101.20
2018-11-27T20:53:05.214Z,106.67
2018-11-27T20:55:34.289Z,103.40
2018-11-27T20:58:03.257Z,104.27
2018-11-27T21:00:35.287Z,102.30
2018-11-27T21:03:05.058Z,103.53
2018-11-27T21:05:35.093Z,103.10
2018-11-27T21:08:04.183Z,101.23
2018-11-27T21:10:33.069Z,102.30
2018-11-27T21:13:02.321Z,103.17
2018-11-27T21:15:31.235Z,103.23
2018-11-27T21:17:59.975Z,103.20
2018-11-27T21:20:28.761Z,102.77
2018-11-27T21:22:57.579Z,102.87
2018-11-27T21:25:26.345Z,103.37
2018-11-27T21:27:59.798Z,101.37
2018-11-27T21:30:28.594Z,105.00
2018-11-27T21:32:57.501Z,106.00
2018-11-27T21:35:26.378Z,102.10
2018-11-27T21:37:59.426Z,103.93
2018-11-27T21:40:28.605Z,104.57
2018-11-27T21:42:57.970Z,101.70
2018-11-27T21:45:28.493Z,102.33
2018-11-27T21:47:58.401Z,102.83
2018-11-27T21:50:32.544Z,105.37
2018-11-27T21:53:01.676Z,104.50
2018-11-27T21:55:30.430Z,103.87
2018-11-27T21:57:59.651Z,103.40
2018-11-27T22:00:28.528Z,104.13
2018-11-27T22:02:57.452Z,102.30
2018-11-27T22:05:26.253Z,103.87
2018-11-27T22:07:55.013Z,102.20
2018-11-27T22:10:24.487Z,102.80
2018-11-27T22:12:55.384Z,106.40
2018-11-27T22:15:31.969Z,104.13
2018-11-27T22:18:00.939Z,103.60
2018-11-27T22:20:30.009Z,105.23
2018-11-27T22:22:58.758Z,105.23
2018-11-27T22:25:27.555Z,104.93
2018-11-27T22:27:56.339Z,106.17
2018-11-27T22:30:25.110Z,105.13
2018-11-27T22:32:54.609Z,105.07
2018-11-27T22:35:23.637Z,103.67
2018-11-27T22:37:52.691Z,102.77
2018-11-27T22:40:22.979Z,101.57
2018-11-27T22:42:52.495Z,102.57
2018-11-27T22:45:30.828Z,103.23
2018-11-27T22:47:59.592Z,102.13
2018-11-27T22:50:28.376Z,107.17
2018-11-27T22:52:57.165Z,105.43
2018-11-27T22:55:25.918Z,105.13
2018-11-27T22:57:54.690Z,103.60
2018-11-27T23:00:33.459Z,106.83
2018-11-27T23:03:02.323Z,105.37
2018-11-27T23:05:31.082Z,103.37
2018-11-27T23:07:59.891Z,102.10
2018-11-27T23:10:30.186Z,102.77
2018-11-27T23:12:59.319Z,102.20
2018-11-27T23:15:28.055Z,101.20
2018-11-27T23:17:56.827Z,101.23
2018-11-27T23:20:25.573Z,104.17
2018-11-27T23:22:54.370Z,101.73
2018-11-27T23:25:23.153Z,104.23
2018-11-27T23:27:52.514Z,101.13
2018-11-27T23:30:24.734Z,102.40
2018-11-27T23:32:53.517Z,103.43
2018-11-27T23:35:22.276Z,103.37
2018-11-27T23:37:51.071Z,100.90
2018-11-27T23:40:20.810Z,102.33
2018-11-27T23:42:49.703Z,101.93
2018-11-27T23:45:19.846Z,100.07
2018-11-27T23:47:48.629Z,102.83
2018-11-27T23:50:18.427Z,103.23
2018-11-27T23:52:47.311Z,101.60
2018-11-27T23:55:16.863Z,101.07
2018-11-27T23:57:46.130Z,101.70
